sensor_id;sensor_type;location;lat;lon;timestamp;temperature;humidity
21189;DHT22;39071;52.420;20.896;2022-09-09T00:04:31;12.50;1.00
21189;DHT22;39071;52.420;20.896;2022-09-09T00:09:30;12.50;1.00
21189;DHT22;39071;52.420;20.896;2022-09-09T00:12:02;12.40;1.00
21189;DHT22;39071;52.420;20.896;2022-09-09T00:22:54;12.20;1.00
21189;DHT22;39071;52.420;20.896;2022-09-09T00:25:29;12.20;1.00
21189;DHT22;39071;52.420;20.896;2022-09-09T00:27:57;12.20;1.00
21189;DHT22;39071;52.420;20.896;2022-09-09T00:30:33;12.20;1.00
21189;DHT22;39071;52.420;20.896;2022-09-09T00:33:01;12.20;1.00
21189;DHT22;39071;52.420;20.896;2022-09-09T00:35:37;12.10;1.00
21189;DHT22;39071;52.420;20.896;2022-09-09T00:38:15;12.20;6.30
21189;DHT22;39071;52.420;20.896;2022-09-09T00:40:52;12.20;1.00
21189;DHT22;39071;52.420;20.896;2022-09-09T00:43:33;12.10;1.00
21189;DHT22;39071;52.420;20.896;2022-09-09T00:48:58;12.20;1.60
21189;DHT22;39071;52.420;20.896;2022-09-09T00:54:25;12.10;59.60
21189;DHT22;39071;52.420;20.896;2022-09-09T00:57:14;12.00;99.90
21189;DHT22;39071;52.420;20.896;2022-09-09T00:59:48;12.00;99.90
21189;DHT22;39071;52.420;20.896;2022-09-09T01:02:25;12.00;99.90
21189;DHT22;39071;52.420;20.896;2022-09-09T01:04:53;12.00;99.90
21189;DHT22;39071;52.420;20.896;2022-09-09T01:07:20;12.00;99.90
21189;DHT22;39071;52.420;20.896;2022-09-09T01:09:56;12.00;99.90
21189;DHT22;39071;52.420;20.896;2022-09-09T01:12:42;12.10;99.90
21189;DHT22;39071;52.420;20.896;2022-09-09T01:15:10;12.10;99.90
21189;DHT22;39071;52.420;20.896;2022-09-09T01:28:44;12.00;99.90
21189;DHT22;39071;52.420;20.896;2022-09-09T01:31:18;12.00;99.90
21189;DHT22;39071;52.420;20.896;2022-09-09T01:33:44;12.10;99.90
21189;DHT22;39071;52.420;20.896;2022-09-09T01:38:38;12.10;99.90
21189;DHT22;39071;52.420;20.896;2022-09-09T01:41:05;12.10;99.90
21189;DHT22;39071;52.420;20.896;2022-09-09T01:43:30;12.10;99.90
21189;DHT22;39071;52.420;20.896;2022-09-09T01:45:59;12.10;99.90
21189;DHT22;39071;52.420;20.896;2022-09-09T01:48:26;12.00;99.90
21189;DHT22;39071;52.420;20.896;2022-09-09T01:50:52;12.00;99.90
21189;DHT22;39071;52.420;20.896;2022-09-09T01:53:20;12.10;99.90
21189;DHT22;39071;52.420;20.896;2022-09-09T02:07:00;12.30;99.90
21189;DHT22;39071;52.420;20.896;2022-09-09T02:09:26;12.30;99.90
21189;DHT22;39071;52.420;20.896;2022-09-09T02:12:14;12.30;99.90
21189;DHT22;39071;52.420;20.896;2022-09-09T02:14:48;12.30;99.90
21189;DHT22;39071;52.420;20.896;2022-09-09T02:17:19;12.30;99.90
21189;DHT22;39071;52.420;20.896;2022-09-09T02:20:00;12.20;99.90
21189;DHT22;39071;52.420;20.896;2022-09-09T02:22:27;12.30;99.90
21189;DHT22;39071;52.420;20.896;2022-09-09T02:24:56;12.30;99.90
21189;DHT22;39071;52.420;20.896;2022-09-09T02:27:24;12.20;99.90
21189;DHT22;39071;52.420;20.896;2022-09-09T02:29:51;12.20;99.90
21189;DHT22;39071;52.420;20.896;2022-09-09T02:32:21;12.20;99.90
21189;DHT22;39071;52.420;20.896;2022-09-09T02:35:00;12.30;99.90
21189;DHT22;39071;52.420;20.896;2022-09-09T02:37:33;12.40;99.90
21189;DHT22;39071;52.420;20.896;2022-09-09T02:40:05;12.40;99.90
21189;DHT22;39071;52.420;20.896;2022-09-09T02:42:31;12.40;99.90
21189;DHT22;39071;52.420;20.896;2022-09-09T02:44:57;12.60;99.90
21189;DHT22;39071;52.420;20.896;2022-09-09T02:50:12;12.50;99.90
21189;DHT22;39071;52.420;20.896;2022-09-09T02:52:59;12.50;99.90
21189;DHT22;39071;52.420;20.896;2022-09-09T02:58:04;12.50;99.90
21189;DHT22;39071;52.420;20.896;2022-09-09T03:00:31;12.60;99.90
21189;DHT22;39071;52.420;20.896;2022-09-09T03:02:58;12.40;99.90
21189;DHT22;39071;52.420;20.896;2022-09-09T03:05:24;12.50;99.90
21189;DHT22;39071;52.420;20.896;2022-09-09T03:07:50;12.40;99.90
21189;DHT22;39071;52.420;20.896;2022-09-09T03:10:16;12.40;99.90
21189;DHT22;39071;52.420;20.896;2022-09-09T03:12:43;12.50;99.90
21189;DHT22;39071;52.420;20.896;2022-09-09T03:15:09;12.60;99.90
21189;DHT22;39071;52.420;20.896;2022-09-09T03:17:35;12.60;99.90
21189;DHT22;39071;52.420;20.896;2022-09-09T03:20:02;12.60;99.90
21189;DHT22;39071;52.420;20.896;2022-09-09T03:22:28;12.60;99.90
21189;DHT22;39071;52.420;20.896;2022-09-09T03:24:54;12.50;99.90
21189;DHT22;39071;52.420;20.896;2022-09-09T03:27:20;12.50;99.90
21189;DHT22;39071;52.420;20.896;2022-09-09T03:29:46;12.50;99.90
21189;DHT22;39071;52.420;20.896;2022-09-09T03:32:12;12.40;99.90
21189;DHT22;39071;52.420;20.896;2022-09-09T03:34:38;12.40;99.90
21189;DHT22;39071;52.420;20.896;2022-09-09T03:37:07;12.40;99.90
21189;DHT22;39071;52.420;20.896;2022-09-09T03:39:33;12.40;99.90
21189;DHT22;39071;52.420;20.896;2022-09-09T03:41:59;12.30;99.90
21189;DHT22;39071;52.420;20.896;2022-09-09T03:44:24;12.40;99.90
21189;DHT22;39071;52.420;20.896;2022-09-09T03:46:50;12.30;99.90
21189;DHT22;39071;52.420;20.896;2022-09-09T03:49:16;12.40;99.90
21189;DHT22;39071;52.420;20.896;2022-09-09T03:51:44;12.50;99.90
21189;DHT22;39071;52.420;20.896;2022-09-09T03:54:10;12.50;99.90
21189;DHT22;39071;52.420;20.896;2022-09-09T03:56:36;12.60;99.90
21189;DHT22;39071;52.420;20.896;2022-09-09T03:59:02;12.60;99.90
21189;DHT22;39071;52.420;20.896;2022-09-09T04:01:28;12.50;99.90
21189;DHT22;39071;52.420;20.896;2022-09-09T04:03:54;12.60;99.90
21189;DHT22;39071;52.420;20.896;2022-09-09T04:06:24;12.60;99.90
21189;DHT22;39071;52.420;20.896;2022-09-09T04:08:50;12.60;99.90
21189;DHT22;39071;52.420;20.896;2022-09-09T04:11:17;12.70;99.90
21189;DHT22;39071;52.420;20.896;2022-09-09T04:13:43;12.70;99.90
21189;DHT22;39071;52.420;20.896;2022-09-09T04:16:10;12.60;99.90
21189;DHT22;39071;52.420;20.896;2022-09-09T04:18:36;12.50;99.90
21189;DHT22;39071;52.420;20.896;2022-09-09T04:21:03;12.60;99.90
21189;DHT22;39071;52.420;20.896;2022-09-09T04:23:29;12.60;99.90
21189;DHT22;39071;52.420;20.896;2022-09-09T04:25:57;12.50;99.90
21189;DHT22;39071;52.420;20.896;2022-09-09T04:28:24;12.60;99.90
21189;DHT22;39071;52.420;20.896;2022-09-09T04:30:50;12.50;99.90
21189;DHT22;39071;52.420;20.896;2022-09-09T04:33:18;12.50;99.90
21189;DHT22;39071;52.420;20.896;2022-09-09T04:35:48;12.50;99.90
21189;DHT22;39071;52.420;20.896;2022-09-09T04:38:16;12.60;99.90
21189;DHT22;39071;52.420;20.896;2022-09-09T04:40:43;12.70;99.90
21189;DHT22;39071;52.420;20.896;2022-09-09T04:43:09;12.70;99.90
21189;DHT22;39071;52.420;20.896;2022-09-09T04:45:35;12.50;99.90
21189;DHT22;39071;52.420;20.896;2022-09-09T04:48:01;12.60;99.90
21189;DHT22;39071;52.420;20.896;2022-09-09T04:50:28;12.60;99.90
21189;DHT22;39071;52.420;20.896;2022-09-09T04:52:54;12.60;99.90
21189;DHT22;39071;52.420;20.896;2022-09-09T04:55:19;12.50;99.90
21189;DHT22;39071;52.420;20.896;2022-09-09T04:57:45;12.60;99.90
21189;DHT22;39071;52.420;20.896;2022-09-09T05:00:11;12.60;99.90
21189;DHT22;39071;52.420;20.896;2022-09-09T05:02:38;12.60;99.90
21189;DHT22;39071;52.420;20.896;2022-09-09T05:05:05;12.60;99.90
21189;DHT22;39071;52.420;20.896;2022-09-09T05:07:31;12.60;99.90
21189;DHT22;39071;52.420;20.896;2022-09-09T05:09:57;12.70;99.90
21189;DHT22;39071;52.420;20.896;2022-09-09T05:12:23;12.80;99.90
21189;DHT22;39071;52.420;20.896;2022-09-09T05:14:51;12.80;99.90
21189;DHT22;39071;52.420;20.896;2022-09-09T05:17:16;12.80;99.90
21189;DHT22;39071;52.420;20.896;2022-09-09T05:19:43;12.80;99.90
21189;DHT22;39071;52.420;20.896;2022-09-09T05:22:09;12.80;99.90
21189;DHT22;39071;52.420;20.896;2022-09-09T05:24:36;12.90;99.90
21189;DHT22;39071;52.420;20.896;2022-09-09T05:27:02;12.90;99.90
21189;DHT22;39071;52.420;20.896;2022-09-09T05:29:28;12.80;99.90
21189;DHT22;39071;52.420;20.896;2022-09-09T05:31:53;12.80;99.90
21189;DHT22;39071;52.420;20.896;2022-09-09T05:34:19;12.80;99.90
21189;DHT22;39071;52.420;20.896;2022-09-09T05:36:46;12.80;99.90
21189;DHT22;39071;52.420;20.896;2022-09-09T05:39:12;12.80;99.90
21189;DHT22;39071;52.420;20.896;2022-09-09T05:41:38;12.80;99.90
21189;DHT22;39071;52.420;20.896;2022-09-09T05:44:04;12.70;99.90
21189;DHT22;39071;52.420;20.896;2022-09-09T05:46:30;12.70;99.90
21189;DHT22;39071;52.420;20.896;2022-09-09T05:48:56;12.80;99.90
21189;DHT22;39071;52.420;20.896;2022-09-09T05:51:28;12.70;99.90
21189;DHT22;39071;52.420;20.896;2022-09-09T05:53:55;12.70;99.90
21189;DHT22;39071;52.420;20.896;2022-09-09T05:56:26;12.70;99.90
21189;DHT22;39071;52.420;20.896;2022-09-09T05:58:54;12.70;99.90
21189;DHT22;39071;52.420;20.896;2022-09-09T06:01:22;12.70;99.90
21189;DHT22;39071;52.420;20.896;2022-09-09T06:03:50;12.80;99.90
21189;DHT22;39071;52.420;20.896;2022-09-09T06:06:21;12.80;99.90
21189;DHT22;39071;52.420;20.896;2022-09-09T06:08:47;12.80;99.90
21189;DHT22;39071;52.420;20.896;2022-09-09T06:11:16;12.80;99.90
21189;DHT22;39071;52.420;20.896;2022-09-09T06:13:42;12.70;99.90
21189;DHT22;39071;52.420;20.896;2022-09-09T06:16:15;12.60;99.90
21189;DHT22;39071;52.420;20.896;2022-09-09T06:18:42;12.70;99.90
21189;DHT22;39071;52.420;20.896;2022-09-09T06:21:20;12.80;99.90
21189;DHT22;39071;52.420;20.896;2022-09-09T06:23:47;12.80;99.90
21189;DHT22;39071;52.420;20.896;2022-09-09T06:26:24;12.90;99.90
21189;DHT22;39071;52.420;20.896;2022-09-09T06:28:52;13.00;99.90
21189;DHT22;39071;52.420;20.896;2022-09-09T06:31:20;12.90;99.90
21189;DHT22;39071;52.420;20.896;2022-09-09T06:33:48;13.00;99.90
21189;DHT22;39071;52.420;20.896;2022-09-09T06:36:20;13.10;99.90
21189;DHT22;39071;52.420;20.896;2022-09-09T06:38:46;13.10;99.90
21189;DHT22;39071;52.420;20.896;2022-09-09T06:41:14;13.10;99.90
21189;DHT22;39071;52.420;20.896;2022-09-09T06:43:41;13.00;99.90
21189;DHT22;39071;52.420;20.896;2022-09-09T06:46:17;13.10;99.90
21189;DHT22;39071;52.420;20.896;2022-09-09T06:48:44;13.10;99.90
21189;DHT22;39071;52.420;20.896;2022-09-09T06:51:13;13.20;99.90
21189;DHT22;39071;52.420;20.896;2022-09-09T06:53:40;13.10;99.90
21189;DHT22;39071;52.420;20.896;2022-09-09T06:56:26;13.00;99.90
21189;DHT22;39071;52.420;20.896;2022-09-09T06:58:55;13.10;99.90
21189;DHT22;39071;52.420;20.896;2022-09-09T07:01:25;13.10;99.90
21189;DHT22;39071;52.420;20.896;2022-09-09T07:03:54;13.10;99.90
21189;DHT22;39071;52.420;20.896;2022-09-09T07:06:23;13.10;99.90
21189;DHT22;39071;52.420;20.896;2022-09-09T07:08:54;13.10;99.90
21189;DHT22;39071;52.420;20.896;2022-09-09T07:11:21;13.10;99.90
21189;DHT22;39071;52.420;20.896;2022-09-09T07:13:48;13.20;99.90
21189;DHT22;39071;52.420;20.896;2022-09-09T07:16:19;13.10;99.90
21189;DHT22;39071;52.420;20.896;2022-09-09T07:18:46;13.30;99.90
21189;DHT22;39071;52.420;20.896;2022-09-09T07:21:13;13.20;99.90
21189;DHT22;39071;52.420;20.896;2022-09-09T07:23:40;13.10;99.90
21189;DHT22;39071;52.420;20.896;2022-09-09T07:26:14;13.10;99.90
21189;DHT22;39071;52.420;20.896;2022-09-09T07:28:41;13.10;99.90
21189;DHT22;39071;52.420;20.896;2022-09-09T07:31:12;13.10;99.90
21189;DHT22;39071;52.420;20.896;2022-09-09T07:33:39;13.10;99.90
21189;DHT22;39071;52.420;20.896;2022-09-09T07:36:07;13.30;99.90
21189;DHT22;39071;52.420;20.896;2022-09-09T07:38:48;13.40;99.90
21189;DHT22;39071;52.420;20.896;2022-09-09T07:41:18;13.30;99.90
21189;DHT22;39071;52.420;20.896;2022-09-09T07:43:46;13.20;99.90
21189;DHT22;39071;52.420;20.896;2022-09-09T07:46:14;13.20;99.90
21189;DHT22;39071;52.420;20.896;2022-09-09T07:48:48;13.20;99.90
21189;DHT22;39071;52.420;20.896;2022-09-09T07:51:19;13.30;99.90
21189;DHT22;39071;52.420;20.896;2022-09-09T07:53:47;13.40;99.90
21189;DHT22;39071;52.420;20.896;2022-09-09T07:56:15;13.30;99.90
21189;DHT22;39071;52.420;20.896;2022-09-09T07:58:44;13.40;99.90
21189;DHT22;39071;52.420;20.896;2022-09-09T08:01:33;13.30;99.90
21189;DHT22;39071;52.420;20.896;2022-09-09T08:03:59;13.30;99.90
21189;DHT22;39071;52.420;20.896;2022-09-09T08:06:27;13.40;99.90
21189;DHT22;39071;52.420;20.896;2022-09-09T08:08:53;13.60;99.90
21189;DHT22;39071;52.420;20.896;2022-09-09T08:11:21;13.40;99.90
21189;DHT22;39071;52.420;20.896;2022-09-09T08:13:49;13.40;99.90
21189;DHT22;39071;52.420;20.896;2022-09-09T08:16:18;13.50;99.90
21189;DHT22;39071;52.420;20.896;2022-09-09T08:18:44;13.50;99.90
21189;DHT22;39071;52.420;20.896;2022-09-09T08:21:14;13.50;99.90
21189;DHT22;39071;52.420;20.896;2022-09-09T08:23:41;13.60;99.90
21189;DHT22;39071;52.420;20.896;2022-09-09T08:26:12;13.70;99.90
21189;DHT22;39071;52.420;20.896;2022-09-09T08:28:38;13.80;99.90
21189;DHT22;39071;52.420;20.896;2022-09-09T08:31:16;13.60;99.90
21189;DHT22;39071;52.420;20.896;2022-09-09T08:33:43;13.60;99.90
21189;DHT22;39071;52.420;20.896;2022-09-09T08:36:22;13.60;99.90
21189;DHT22;39071;52.420;20.896;2022-09-09T08:38:49;13.70;99.90
21189;DHT22;39071;52.420;20.896;2022-09-09T08:43:48;13.80;99.90
21189;DHT22;39071;52.420;20.896;2022-09-09T08:46:42;13.80;99.90
21189;DHT22;39071;52.420;20.896;2022-09-09T08:49:41;13.90;99.90
21189;DHT22;39071;52.420;20.896;2022-09-09T08:52:18;13.90;99.90
21189;DHT22;39071;52.420;20.896;2022-09-09T08:54:45;14.10;99.90
21189;DHT22;39071;52.420;20.896;2022-09-09T08:57:17;14.10;99.90
21189;DHT22;39071;52.420;20.896;2022-09-09T08:59:45;14.10;99.90
21189;DHT22;39071;52.420;20.896;2022-09-09T09:02:24;14.00;99.90
21189;DHT22;39071;52.420;20.896;2022-09-09T09:05:05;14.10;99.90
21189;DHT22;39071;52.420;20.896;2022-09-09T09:07:58;14.10;99.90
21189;DHT22;39071;52.420;20.896;2022-09-09T09:12:55;14.10;99.90
21189;DHT22;39071;52.420;20.896;2022-09-09T09:15:26;14.20;99.90
21189;DHT22;39071;52.420;20.896;2022-09-09T09:17:54;14.40;99.90
21189;DHT22;39071;52.420;20.896;2022-09-09T09:20:27;14.50;99.90
21189;DHT22;39071;52.420;20.896;2022-09-09T09:22:59;14.40;99.90
21189;DHT22;39071;52.420;20.896;2022-09-09T09:25:34;14.40;99.90
21189;DHT22;39071;52.420;20.896;2022-09-09T09:28:02;14.40;99.90
21189;DHT22;39071;52.420;20.896;2022-09-09T09:30:39;14.30;99.90
21189;DHT22;39071;52.420;20.896;2022-09-09T09:33:22;14.10;99.90
21189;DHT22;39071;52.420;20.896;2022-09-09T09:35:50;14.00;99.90
21189;DHT22;39071;52.420;20.896;2022-09-09T09:38:26;14.20;99.90
21189;DHT22;39071;52.420;20.896;2022-09-09T09:40:58;14.30;99.90
21189;DHT22;39071;52.420;20.896;2022-09-09T09:43:39;14.40;99.90
21189;DHT22;39071;52.420;20.896;2022-09-09T09:46:05;14.50;99.90
21189;DHT22;39071;52.420;20.896;2022-09-09T09:48:43;14.30;99.90
21189;DHT22;39071;52.420;20.896;2022-09-09T09:51:13;14.20;99.90
21189;DHT22;39071;52.420;20.896;2022-09-09T09:53:42;14.30;99.90
21189;DHT22;39071;52.420;20.896;2022-09-09T09:56:10;14.30;99.90
21189;DHT22;39071;52.420;20.896;2022-09-09T09:58:50;14.40;99.90
21189;DHT22;39071;52.420;20.896;2022-09-09T10:01:31;14.50;99.90
21189;DHT22;39071;52.420;20.896;2022-09-09T10:04:22;14.60;99.90
21189;DHT22;39071;52.420;20.896;2022-09-09T10:06:51;14.60;99.90
21189;DHT22;39071;52.420;20.896;2022-09-09T10:09:23;14.50;99.90
21189;DHT22;39071;52.420;20.896;2022-09-09T10:14:39;14.60;99.90
21189;DHT22;39071;52.420;20.896;2022-09-09T10:23:25;14.70;99.90
21189;DHT22;39071;52.420;20.896;2022-09-09T10:32:00;14.70;99.90
21189;DHT22;39071;52.420;20.896;2022-09-09T10:37:41;14.50;99.90
21189;DHT22;39071;52.420;20.896;2022-09-09T10:40:29;14.60;99.90
21189;DHT22;39071;52.420;20.896;2022-09-09T10:51:26;14.60;99.90
21189;DHT22;39071;52.420;20.896;2022-09-09T10:54:05;14.60;99.90
21189;DHT22;39071;52.420;20.896;2022-09-09T10:56:33;14.60;99.90
21189;DHT22;39071;52.420;20.896;2022-09-09T10:59:13;14.70;99.90
21189;DHT22;39071;52.420;20.896;2022-09-09T11:01:57;14.70;99.90
21189;DHT22;39071;52.420;20.896;2022-09-09T11:04:45;14.80;99.90
21189;DHT22;39071;52.420;20.896;2022-09-09T11:07:37;14.70;99.90
21189;DHT22;39071;52.420;20.896;2022-09-09T11:13:03;14.90;99.90
21189;DHT22;39071;52.420;20.896;2022-09-09T11:15:36;14.90;99.90
21189;DHT22;39071;52.420;20.896;2022-09-09T11:18:08;14.90;99.90
21189;DHT22;39071;52.420;20.896;2022-09-09T11:20:37;14.80;99.90
21189;DHT22;39071;52.420;20.896;2022-09-09T11:23:13;14.90;99.90
21189;DHT22;39071;52.420;20.896;2022-09-09T11:25:50;14.80;99.90
21189;DHT22;39071;52.420;20.896;2022-09-09T11:28:28;14.80;99.90
21189;DHT22;39071;52.420;20.896;2022-09-09T11:31:35;14.90;99.90
21189;DHT22;39071;52.420;20.896;2022-09-09T11:42:26;15.00;99.90
21189;DHT22;39071;52.420;20.896;2022-09-09T11:44:52;15.00;99.90
21189;DHT22;39071;52.420;20.896;2022-09-09T11:47:31;15.10;99.90
21189;DHT22;39071;52.420;20.896;2022-09-09T11:52:47;15.10;41.30
21189;DHT22;39071;52.420;20.896;2022-09-09T11:55:30;15.00;99.90
21189;DHT22;39071;52.420;20.896;2022-09-09T11:58:00;15.00;99.90
21189;DHT22;39071;52.420;20.896;2022-09-09T12:00:36;15.10;99.90
21189;DHT22;39071;52.420;20.896;2022-09-09T12:03:06;15.20;99.90
21189;DHT22;39071;52.420;20.896;2022-09-09T12:05:51;15.10;84.90
21189;DHT22;39071;52.420;20.896;2022-09-09T12:08:26;15.20;99.90
21189;DHT22;39071;52.420;20.896;2022-09-09T12:10:55;15.20;99.90
21189;DHT22;39071;52.420;20.896;2022-09-09T12:13:23;15.30;99.90
21189;DHT22;39071;52.420;20.896;2022-09-09T12:15:57;15.20;17.80
21189;DHT22;39071;52.420;20.896;2022-09-09T12:18:24;15.30;59.50
21189;DHT22;39071;52.420;20.896;2022-09-09T12:23:59;15.10;49.70
21189;DHT22;39071;52.420;20.896;2022-09-09T12:31:50;15.10;99.90
21189;DHT22;39071;52.420;20.896;2022-09-09T12:36:45;15.20;99.90
21189;DHT22;39071;52.420;20.896;2022-09-09T12:39:29;15.30;99.90
21189;DHT22;39071;52.420;20.896;2022-09-09T12:41:56;15.40;91.00
21189;DHT22;39071;52.420;20.896;2022-09-09T12:44:24;15.30;30.60
21189;DHT22;39071;52.420;20.896;2022-09-09T12:46:51;15.30;53.20
21189;DHT22;39071;52.420;20.896;2022-09-09T12:49:36;15.30;45.40
21189;DHT22;39071;52.420;20.896;2022-09-09T12:52:26;15.20;99.90
21189;DHT22;39071;52.420;20.896;2022-09-09T12:54:53;15.20;99.90
21189;DHT22;39071;52.420;20.896;2022-09-09T12:57:20;15.20;98.70
21189;DHT22;39071;52.420;20.896;2022-09-09T12:59:47;15.20;99.90
21189;DHT22;39071;52.420;20.896;2022-09-09T13:02:22;15.10;99.90
21189;DHT22;39071;52.420;20.896;2022-09-09T13:04:49;15.10;99.90
21189;DHT22;39071;52.420;20.896;2022-09-09T13:07:19;15.20;99.90
21189;DHT22;39071;52.420;20.896;2022-09-09T13:09:48;15.20;99.90
21189;DHT22;39071;52.420;20.896;2022-09-09T13:12:22;15.10;99.90
21189;DHT22;39071;52.420;20.896;2022-09-09T13:14:55;15.10;99.90
21189;DHT22;39071;52.420;20.896;2022-09-09T13:17:23;15.20;99.90
21189;DHT22;39071;52.420;20.896;2022-09-09T13:19:51;15.20;99.90
21189;DHT22;39071;52.420;20.896;2022-09-09T13:22:34;15.10;99.90
21189;DHT22;39071;52.420;20.896;2022-09-09T13:25:05;15.10;99.90
21189;DHT22;39071;52.420;20.896;2022-09-09T13:27:40;15.10;99.90
21189;DHT22;39071;52.420;20.896;2022-09-09T13:30:39;15.20;99.90
21189;DHT22;39071;52.420;20.896;2022-09-09T13:35:35;15.00;99.90
21189;DHT22;39071;52.420;20.896;2022-09-09T13:38:14;14.80;99.90
21189;DHT22;39071;52.420;20.896;2022-09-09T13:40:40;14.70;99.90
21189;DHT22;39071;52.420;20.896;2022-09-09T13:43:17;14.70;99.90
21189;DHT22;39071;52.420;20.896;2022-09-09T13:45:53;14.60;99.90
21189;DHT22;39071;52.420;20.896;2022-09-09T13:48:19;14.70;99.90
21189;DHT22;39071;52.420;20.896;2022-09-09T13:53:42;14.50;99.90
21189;DHT22;39071;52.420;20.896;2022-09-09T13:56:07;14.70;99.90
21189;DHT22;39071;52.420;20.896;2022-09-09T13:58:34;14.70;99.90
21189;DHT22;39071;52.420;20.896;2022-09-09T14:00:59;14.50;99.90
21189;DHT22;39071;52.420;20.896;2022-09-09T14:03:25;14.60;99.90
21189;DHT22;39071;52.420;20.896;2022-09-09T14:05:51;14.70;99.90
21189;DHT22;39071;52.420;20.896;2022-09-09T14:08:22;14.70;99.90
21189;DHT22;39071;52.420;20.896;2022-09-09T14:10:49;14.60;99.90
21189;DHT22;39071;52.420;20.896;2022-09-09T14:13:14;14.60;99.90
21189;DHT22;39071;52.420;20.896;2022-09-09T14:15:41;14.70;99.90
21189;DHT22;39071;52.420;20.896;2022-09-09T14:18:10;14.70;99.90
21189;DHT22;39071;52.420;20.896;2022-09-09T14:20:37;14.70;99.90
21189;DHT22;39071;52.420;20.896;2022-09-09T14:23:03;14.60;99.90
21189;DHT22;39071;52.420;20.896;2022-09-09T14:25:28;14.60;99.90
21189;DHT22;39071;52.420;20.896;2022-09-09T14:27:54;14.60;99.90
21189;DHT22;39071;52.420;20.896;2022-09-09T14:30:22;14.50;99.90
21189;DHT22;39071;52.420;20.896;2022-09-09T14:32:47;14.60;99.90
21189;DHT22;39071;52.420;20.896;2022-09-09T14:35:13;14.70;99.90
21189;DHT22;39071;52.420;20.896;2022-09-09T14:37:39;14.70;99.90
21189;DHT22;39071;52.420;20.896;2022-09-09T14:40:05;14.70;99.90
21189;DHT22;39071;52.420;20.896;2022-09-09T14:42:31;14.60;99.90
21189;DHT22;39071;52.420;20.896;2022-09-09T14:44:57;14.60;99.90
21189;DHT22;39071;52.420;20.896;2022-09-09T14:47:22;14.70;99.90
21189;DHT22;39071;52.420;20.896;2022-09-09T14:49:48;14.70;99.90
21189;DHT22;39071;52.420;20.896;2022-09-09T14:52:15;14.70;99.90
21189;DHT22;39071;52.420;20.896;2022-09-09T14:54:41;14.70;99.90
21189;DHT22;39071;52.420;20.896;2022-09-09T14:57:07;14.70;99.90
21189;DHT22;39071;52.420;20.896;2022-09-09T14:59:32;14.60;99.90
21189;DHT22;39071;52.420;20.896;2022-09-09T15:01:59;14.70;99.90
21189;DHT22;39071;52.420;20.896;2022-09-09T15:04:29;14.70;99.90
21189;DHT22;39071;52.420;20.896;2022-09-09T15:06:55;14.70;99.90
21189;DHT22;39071;52.420;20.896;2022-09-09T15:09:20;14.80;99.90
21189;DHT22;39071;52.420;20.896;2022-09-09T15:11:46;14.90;99.90
21189;DHT22;39071;52.420;20.896;2022-09-09T15:14:12;14.90;99.90
21189;DHT22;39071;52.420;20.896;2022-09-09T15:16:38;14.90;99.90
21189;DHT22;39071;52.420;20.896;2022-09-09T15:19:05;14.90;99.90
21189;DHT22;39071;52.420;20.896;2022-09-09T15:21:33;14.80;99.90
21189;DHT22;39071;52.420;20.896;2022-09-09T15:24:00;14.80;99.90
21189;DHT22;39071;52.420;20.896;2022-09-09T15:26:26;14.90;99.90
21189;DHT22;39071;52.420;20.896;2022-09-09T15:28:53;15.00;99.90
21189;DHT22;39071;52.420;20.896;2022-09-09T15:31:24;15.00;99.90
21189;DHT22;39071;52.420;20.896;2022-09-09T15:36:22;15.10;99.90
21189;DHT22;39071;52.420;20.896;2022-09-09T15:38:49;15.10;99.90
21189;DHT22;39071;52.420;20.896;2022-09-09T15:41:16;15.20;99.90
21189;DHT22;39071;52.420;20.896;2022-09-09T15:43:47;15.20;99.90
21189;DHT22;39071;52.420;20.896;2022-09-09T15:48:43;15.30;99.90
21189;DHT22;39071;52.420;20.896;2022-09-09T15:51:10;15.30;99.90
21189;DHT22;39071;52.420;20.896;2022-09-09T15:53:37;15.20;99.90
21189;DHT22;39071;52.420;20.896;2022-09-09T15:56:05;15.30;99.90
21189;DHT22;39071;52.420;20.896;2022-09-09T15:58:32;15.30;99.90
21189;DHT22;39071;52.420;20.896;2022-09-09T16:01:09;15.30;99.90
21189;DHT22;39071;52.420;20.896;2022-09-09T16:03:35;15.30;99.90
21189;DHT22;39071;52.420;20.896;2022-09-09T16:06:02;15.20;99.90
21189;DHT22;39071;52.420;20.896;2022-09-09T16:08:46;15.10;99.90
21189;DHT22;39071;52.420;20.896;2022-09-09T16:11:18;15.00;99.90
21189;DHT22;39071;52.420;20.896;2022-09-09T16:13:47;14.80;99.90
21189;DHT22;39071;52.420;20.896;2022-09-09T16:16:14;14.80;99.90
21189;DHT22;39071;52.420;20.896;2022-09-09T16:18:42;14.70;99.90
21189;DHT22;39071;52.420;20.896;2022-09-09T16:21:20;14.80;99.90
21189;DHT22;39071;52.420;20.896;2022-09-09T16:23:46;14.80;99.90
21189;DHT22;39071;52.420;20.896;2022-09-09T16:26:15;14.90;99.90
21189;DHT22;39071;52.420;20.896;2022-09-09T16:28:42;14.80;99.90
21189;DHT22;39071;52.420;20.896;2022-09-09T16:31:14;14.80;99.90
21189;DHT22;39071;52.420;20.896;2022-09-09T16:33:40;14.80;99.90
21189;DHT22;39071;52.420;20.896;2022-09-09T16:36:29;14.70;99.90
21189;DHT22;39071;52.420;20.896;2022-09-09T16:38:58;14.80;99.90
21189;DHT22;39071;52.420;20.896;2022-09-09T16:41:25;14.60;99.90
21189;DHT22;39071;52.420;20.896;2022-09-09T16:44:03;14.70;99.90
21189;DHT22;39071;52.420;20.896;2022-09-09T16:46:31;14.60;99.90
21189;DHT22;39071;52.420;20.896;2022-09-09T16:48:59;14.60;99.90
21189;DHT22;39071;52.420;20.896;2022-09-09T16:51:31;14.60;99.90
21189;DHT22;39071;52.420;20.896;2022-09-09T16:54:02;14.50;99.90
21189;DHT22;39071;52.420;20.896;2022-09-09T16:56:30;14.50;99.90
21189;DHT22;39071;52.420;20.896;2022-09-09T16:58:59;14.60;99.90
21189;DHT22;39071;52.420;20.896;2022-09-09T17:01:27;14.50;99.90
21189;DHT22;39071;52.420;20.896;2022-09-09T17:03:57;14.60;99.90
21189;DHT22;39071;52.420;20.896;2022-09-09T17:06:24;14.60;99.90
21189;DHT22;39071;52.420;20.896;2022-09-09T17:08:55;14.40;99.90
21189;DHT22;39071;52.420;20.896;2022-09-09T17:11:20;14.50;99.90
21189;DHT22;39071;52.420;20.896;2022-09-09T17:13:47;14.50;99.90
21189;DHT22;39071;52.420;20.896;2022-09-09T17:16:15;14.50;99.90
21189;DHT22;39071;52.420;20.896;2022-09-09T17:18:41;14.50;99.90
21189;DHT22;39071;52.420;20.896;2022-09-09T17:21:12;14.50;99.90
21189;DHT22;39071;52.420;20.896;2022-09-09T17:23:40;14.50;99.90
21189;DHT22;39071;52.420;20.896;2022-09-09T17:26:08;14.50;99.90
21189;DHT22;39071;52.420;20.896;2022-09-09T17:28:36;14.60;99.90
21189;DHT22;39071;52.420;20.896;2022-09-09T17:31:02;14.50;99.90
21189;DHT22;39071;52.420;20.896;2022-09-09T17:33:31;14.60;99.90